Time;durP1;ratioP1;P1;durP2;ratioP2;P2;SDS_P1;SDS_P2;PMS_P1;PMS_P2;Temp;Humidity;BMP_temperature;BMP_pressure;BME280_temperature;BME280_humidity;BME280_pressure;Samples;Min_cycle;Max_cycle;Signal;HPM_P1;HPM_P2
2021/11/04 00:01:01;;;;;;;6.53;3.10;;;6.70;99.90;;;;;;5063979;28;20067;-81
2021/11/04 00:03:27;;;;;;;5.60;2.23;;;6.70;99.90;;;;;;5064809;28;20025;-82
2021/11/04 00:05:53;;;;;;;4.47;2.20;;;6.70;99.90;;;;;;5072719;28;20425;-82
2021/11/04 00:08:19;;;;;;;4.83;2.33;;;6.60;99.90;;;;;;5059147;28;20059;-82
2021/11/04 00:10:45;;;;;;;3.90;1.83;;;6.60;99.90;;;;;;5058667;28;20027;-81
2021/11/04 00:13:10;;;;;;;4.13;1.93;;;6.60;99.90;;;;;;5061464;28;20028;-83
2021/11/04 00:15:36;;;;;;;4.13;1.57;;;6.60;99.90;;;;;;5065882;28;20028;-82
2021/11/04 00:18:02;;;;;;;2.57;1.10;;;6.60;99.90;;;;;;5079818;28;20408;-84
2021/11/04 00:20:28;;;;;;;3.40;1.30;;;6.60;99.90;;;;;;5078430;28;20028;-83
2021/11/04 00:22:54;;;;;;;3.60;1.10;;;6.70;99.90;;;;;;5065360;28;20028;-82
2021/11/04 00:25:20;;;;;;;3.03;1.00;;;6.60;99.90;;;;;;5063489;28;20108;-83
2021/11/04 00:27:47;;;;;;;2.10;0.80;;;6.60;99.90;;;;;;5062615;28;20055;-83
2021/11/04 00:30:13;;;;;;;2.77;1.00;;;6.60;99.90;;;;;;5060893;28;20028;-83
2021/11/04 00:32:51;;;;;;;2.23;1.10;;;6.60;99.90;;;;;;5064138;28;20016;-83
2021/11/04 00:35:17;;;;;;;2.80;1.27;;;6.60;99.90;;;;;;5079317;28;20039;-82
2021/11/04 00:37:43;;;;;;;2.70;1.10;;;6.60;99.90;;;;;;5081556;28;20051;-83
2021/11/04 00:40:12;;;;;;;2.57;1.20;;;6.60;99.90;;;;;;5061181;28;20024;-83
2021/11/04 00:42:38;;;;;;;2.03;0.80;;;6.60;99.90;;;;;;5062718;28;20021;-83
2021/11/04 00:45:05;;;;;;;1.63;0.80;;;6.60;99.90;;;;;;5081131;28;20496;-83
2021/11/04 00:47:31;;;;;;;1.97;0.70;;;6.60;99.90;;;;;;5079482;28;20679;-82
2021/11/04 00:49:57;;;;;;;1.07;0.60;;;6.60;99.90;;;;;;5077943;28;20104;-83
2021/11/04 00:52:22;;;;;;;1.40;0.50;;;6.60;99.90;;;;;;5068086;28;20029;-83
2021/11/04 00:54:48;;;;;;;1.03;0.50;;;6.60;99.90;;;;;;5084770;28;20024;-83
2021/11/04 00:57:14;;;;;;;2.20;0.70;;;6.60;99.90;;;;;;5083057;28;20031;-83
2021/11/04 00:59:39;;;;;;;2.53;0.97;;;6.60;99.90;;;;;;5078923;28;20020;-83
2021/11/04 01:02:05;;;;;;;2.80;0.60;;;6.60;99.90;;;;;;5080015;28;20035;-82
2021/11/04 01:04:31;;;;;;;5.10;0.90;;;6.60;99.90;;;;;;5079581;28;20040;-83
2021/11/04 01:06:56;;;;;;;1.37;0.53;;;6.60;99.90;;;;;;5080302;28;20058;-83
2021/11/04 01:09:22;;;;;;;3.37;0.80;;;6.50;99.90;;;;;;5065736;28;20045;-83
2021/11/04 01:11:48;;;;;;;1.37;0.60;;;6.50;99.90;;;;;;5078179;28;20158;-82
2021/11/04 01:14:14;;;;;;;2.27;1.00;;;6.50;99.90;;;;;;5081519;28;20040;-83
2021/11/04 01:16:40;;;;;;;1.93;0.83;;;6.50;99.90;;;;;;5063617;28;20059;-83
2021/11/04 01:19:06;;;;;;;2.30;0.87;;;6.50;99.90;;;;;;5064691;28;20135;-83
2021/11/04 01:21:32;;;;;;;1.83;0.70;;;6.60;99.90;;;;;;5080306;28;20033;-83
2021/11/04 01:23:57;;;;;;;1.70;0.73;;;6.60;99.90;;;;;;5078715;28;20147;-83
2021/11/04 01:26:23;;;;;;;1.20;0.60;;;6.60;99.90;;;;;;5061561;28;20035;-83
2021/11/04 01:28:48;;;;;;;2.40;0.90;;;6.60;99.90;;;;;;5075110;28;20090;-83
2021/11/04 01:31:14;;;;;;;2.67;0.50;;;6.60;99.90;;;;;;5075590;28;20020;-83
2021/11/04 01:33:40;;;;;;;1.23;0.70;;;6.60;99.90;;;;;;5076116;28;20574;-84
2021/11/04 01:36:05;;;;;;;2.47;1.00;;;6.60;99.90;;;;;;5078586;28;20025;-82
2021/11/04 01:38:32;;;;;;;2.50;0.90;;;6.60;99.90;;;;;;5079453;28;20029;-83
2021/11/04 01:40:57;;;;;;;1.93;0.57;;;6.60;99.90;;;;;;5059885;28;20031;-83
2021/11/04 01:43:23;;;;;;;4.03;0.60;;;6.60;99.90;;;;;;5063196;28;20423;-82
2021/11/04 01:45:49;;;;;;;2.47;0.50;;;6.60;99.90;;;;;;5064272;28;20028;-83
2021/11/04 01:48:16;;;;;;;0.87;0.40;;;6.60;99.90;;;;;;5059166;28;20406;-83
2021/11/04 01:50:42;;;;;;;1.60;0.50;;;6.50;99.90;;;;;;5079538;28;20081;-83
2021/11/04 01:53:08;;;;;;;1.47;0.60;;;6.60;99.90;;;;;;5075977;28;20033;-83
2021/11/04 01:55:34;;;;;;;1.10;0.40;;;6.60;99.90;;;;;;5079572;28;20028;-83
2021/11/04 01:58:01;;;;;;;1.30;0.43;;;6.60;99.90;;;;;;5077506;28;20043;-84
2021/11/04 02:00:30;;;;;;;2.70;0.80;;;6.60;99.90;;;;;;5077693;28;20075;-83
2021/11/04 02:02:57;;;;;;;1.03;0.50;;;6.60;99.90;;;;;;5077567;28;20825;-83
2021/11/04 02:05:33;;;;;;;1.20;0.50;;;6.60;99.90;;;;;;5064048;28;20496;-83
2021/11/04 02:08:08;;;;;;;1.43;0.43;;;6.60;99.90;;;;;;5073997;28;20073;-82
2021/11/04 02:10:39;;;;;;;1.03;0.43;;;6.60;99.90;;;;;;5060664;28;20036;-82
2021/11/04 02:13:29;;;;;;;2.58;0.50;;;6.60;99.90;;;;;;5075262;28;20146;-82
2021/11/04 02:15:58;;;;;;;2.17;0.50;;;6.60;99.90;;;;;;5074080;28;20043;-82
2021/11/04 02:18:28;;;;;;;0.43;0.30;;;6.60;99.90;;;;;;5073130;28;20028;-82
2021/11/04 02:21:15;;;;;;;4.00;0.40;;;6.70;99.90;;;;;;5058857;28;20035;-82
2021/11/04 02:23:46;;;;;;;0.97;0.40;;;6.60;99.90;;;;;;5072305;28;20031;-83
2021/11/04 02:26:12;;;;;;;0.75;0.40;;;6.60;99.90;;;;;;5058696;28;20056;-82
2021/11/04 02:28:39;;;;;;;1.27;0.60;;;6.70;99.90;;;;;;5072354;28;20094;-82
2021/11/04 02:31:10;;;;;;;1.60;0.60;;;6.60;99.90;;;;;;5060660;28;20013;-83
2021/11/04 02:33:38;;;;;;;1.27;0.40;;;6.60;99.90;;;;;;5074559;28;20720;-81
2021/11/04 02:36:07;;;;;;;0.67;0.30;;;6.60;99.90;;;;;;5077530;28;20016;-82
2021/11/04 02:38:33;;;;;;;1.10;0.40;;;6.60;99.90;;;;;;5075632;28;20032;-82
2021/11/04 02:41:01;;;;;;;0.80;0.40;;;6.60;99.90;;;;;;5056468;28;20044;-82
2021/11/04 02:43:30;;;;;;;0.80;0.37;;;6.60;99.90;;;;;;5078465;28;20029;-81
2021/11/04 02:45:56;;;;;;;0.53;0.30;;;6.50;99.90;;;;;;5075882;28;20388;-81
2021/11/04 02:48:21;;;;;;;0.40;0.20;;;6.50;99.90;;;;;;5060822;28;20384;-82
2021/11/04 02:50:51;;;;;;;0.50;0.20;;;6.50;99.90;;;;;;5076354;28;20072;-82
2021/11/04 02:53:25;;;;;;;0.70;0.40;;;6.50;99.90;;;;;;5075683;28;20016;-81
2021/11/04 02:55:52;;;;;;;1.00;0.30;;;6.40;99.90;;;;;;5073928;28;20028;-82
2021/11/04 02:58:18;;;;;;;0.90;0.30;;;6.40;99.90;;;;;;5060850;28;20025;-82
2021/11/04 03:00:50;;;;;;;0.70;0.40;;;6.30;99.90;;;;;;5058090;28;20040;-82
2021/11/04 03:03:16;;;;;;;2.15;0.40;;;6.20;99.90;;;;;;5058003;28;20400;-81
2021/11/04 03:05:41;;;;;;;0.93;0.40;;;6.20;99.90;;;;;;5079282;28;20095;-82
2021/11/04 03:08:07;;;;;;;1.10;0.43;;;6.20;99.90;;;;;;5073753;28;20566;-82
2021/11/04 03:10:33;;;;;;;1.10;0.50;;;6.20;99.90;;;;;;5073806;28;20040;-82
2021/11/04 03:12:59;;;;;;;0.73;0.40;;;6.20;99.90;;;;;;5076183;28;20474;-82
2021/11/04 03:15:29;;;;;;;1.43;0.50;;;6.20;99.90;;;;;;5078410;28;20131;-82
2021/11/04 03:17:55;;;;;;;1.27;0.50;;;6.20;99.90;;;;;;5073595;28;20037;-81
2021/11/04 03:20:21;;;;;;;1.13;0.47;;;6.10;99.90;;;;;;5059401;28;20099;-82
2021/11/04 03:22:48;;;;;;;1.43;0.40;;;6.10;99.90;;;;;;5075589;28;20689;-81
2021/11/04 03:25:18;;;;;;;0.40;0.30;;;6.10;99.90;;;;;;5057332;28;20385;-81
2021/11/04 03:27:46;;;;;;;0.70;0.30;;;6.10;99.90;;;;;;5074864;28;20154;-82
2021/11/04 03:30:16;;;;;;;0.57;0.30;;;6.00;99.90;;;;;;5074169;28;20033;-82
2021/11/04 03:32:42;;;;;;;1.27;0.40;;;6.00;99.90;;;;;;5074507;28;20491;-81
2021/11/04 03:35:10;;;;;;;0.10;0.10;;;6.00;99.90;;;;;;5063164;28;20024;-83
2021/11/04 03:37:38;;;;;;;0.60;0.27;;;6.00;99.90;;;;;;5075871;28;20024;-82
2021/11/04 03:40:05;;;;;;;0.20;0.10;;;6.00;99.90;;;;;;5076611;28;20111;-82
2021/11/04 03:42:31;;;;;;;0.57;0.20;;;6.00;99.90;;;;;;5082678;28;20028;-82
2021/11/04 03:44:59;;;;;;;0.30;0.20;;;6.00;99.90;;;;;;5061125;28;20028;-81
2021/11/04 03:47:30;;;;;;;0.43;0.20;;;6.00;99.90;;;;;;5080125;28;20025;-83
2021/11/04 03:49:57;;;;;;;0.20;0.10;;;6.00;99.90;;;;;;5079720;28;20021;-83
2021/11/04 03:52:23;;;;;;;0.10;0.10;;;6.00;99.90;;;;;;5080488;28;20070;-83
2021/11/04 03:54:49;;;;;;;0.50;0.10;;;5.90;99.90;;;;;;5083440;28;20020;-82
2021/11/04 03:57:16;;;;;;;0.87;0.30;;;5.80;99.90;;;;;;5067483;28;20564;-82
2021/11/04 03:59:42;;;;;;;0.77;0.20;;;5.80;99.90;;;;;;5068706;28;20027;-83
2021/11/04 04:02:08;;;;;;;0.70;0.20;;;5.80;99.90;;;;;;5079795;28;20020;-82
2021/11/04 04:04:34;;;;;;;0.33;0.20;;;5.80;99.90;;;;;;5066053;28;20024;-82
2021/11/04 04:07:00;;;;;;;0.73;0.30;;;5.80;99.90;;;;;;5081285;28;20021;-81
2021/11/04 04:09:25;;;;;;;0.23;0.10;;;5.70;99.90;;;;;;5063222;28;20028;-80
2021/11/04 04:11:52;;;;;;;0.27;0.20;;;5.70;99.90;;;;;;5062121;28;20035;-81
2021/11/04 04:14:19;;;;;;;0.37;0.20;;;5.70;99.90;;;;;;5062797;28;20071;-81
2021/11/04 04:16:45;;;;;;;1.40;0.30;;;5.60;99.90;;;;;;5078703;28;20031;-81
2021/11/04 04:19:10;;;;;;;0.73;0.33;;;5.70;99.90;;;;;;5059997;28;20554;-80
2021/11/04 04:21:36;;;;;;;1.80;0.30;;;5.70;99.90;;;;;;5063916;28;20016;-81
2021/11/04 04:24:02;;;;;;;0.60;0.20;;;5.80;99.90;;;;;;5058207;28;20388;-80
2021/11/04 04:26:28;;;;;;;0.40;0.20;;;5.80;99.90;;;;;;5076563;28;20455;-81
2021/11/04 04:28:53;;;;;;;0.70;0.30;;;5.70;99.90;;;;;;5060765;28;20119;-81
2021/11/04 04:31:19;;;;;;;0.70;0.40;;;5.70;99.90;;;;;;5072839;28;20021;-81
2021/11/04 04:33:45;;;;;;;1.37;0.30;;;5.80;99.90;;;;;;5075550;28;20126;-82
2021/11/04 04:36:10;;;;;;;0.93;0.37;;;5.60;99.90;;;;;;5078476;28;20024;-81
2021/11/04 04:38:36;;;;;;;0.80;0.23;;;5.70;99.90;;;;;;5078727;28;20471;-82
2021/11/04 04:41:02;;;;;;;0.53;0.30;;;5.70;99.90;;;;;;5059028;28;20051;-82
2021/11/04 04:43:28;;;;;;;0.50;0.20;;;5.70;99.90;;;;;;5079837;28;20036;-81
2021/11/04 04:45:54;;;;;;;0.43;0.20;;;5.60;99.90;;;;;;5077979;28;20025;-82
2021/11/04 04:48:20;;;;;;;0.30;0.20;;;5.60;99.90;;;;;;5065028;28;20020;-82
2021/11/04 04:50:46;;;;;;;0.90;0.40;;;5.60;99.90;;;;;;5078988;28;20370;-82
2021/11/04 04:53:12;;;;;;;0.60;0.30;;;5.60;99.90;;;;;;5072048;28;20033;-81
2021/11/04 04:55:37;;;;;;;0.43;0.20;;;5.50;99.90;;;;;;5065628;28;20073;-82
2021/11/04 04:58:06;;;;;;;0.43;0.20;;;5.50;99.90;;;;;;5063729;28;20044;-82
2021/11/04 05:00:32;;;;;;;0.60;0.30;;;5.50;99.90;;;;;;5073698;28;20032;-80
2021/11/04 05:02:58;;;;;;;0.90;0.40;;;5.50;99.90;;;;;;5088790;28;20032;-81
2021/11/04 05:05:23;;;;;;;1.10;0.40;;;5.40;99.90;;;;;;5087396;28;20020;-81
2021/11/04 05:07:49;;;;;;;0.80;0.40;;;5.40;99.90;;;;;;5090308;28;20034;-80
2021/11/04 05:10:15;;;;;;;0.90;0.30;;;5.30;99.90;;;;;;5088278;28;20037;-80
2021/11/04 05:12:42;;;;;;;0.50;0.20;;;5.30;99.90;;;;;;5072657;28;20036;-80
2021/11/04 05:15:08;;;;;;;0.70;0.23;;;5.30;99.90;;;;;;5072614;28;20477;-80
2021/11/04 05:17:34;;;;;;;0.33;0.20;;;5.30;99.90;;;;;;5065305;28;20029;-82
2021/11/04 05:20:02;;;;;;;0.47;0.20;;;5.40;99.90;;;;;;5056548;28;20089;-83
2021/11/04 05:22:27;;;;;;;0.50;0.20;;;5.30;99.90;;;;;;5078853;28;20017;-82
2021/11/04 05:24:53;;;;;;;0.30;0.20;;;5.30;99.90;;;;;;5079082;28;20099;-82
2021/11/04 05:27:18;;;;;;;0.20;0.10;;;5.30;99.90;;;;;;5080040;28;20032;-81
2021/11/04 05:29:44;;;;;;;0.30;0.20;;;5.30;99.90;;;;;;5080695;28;20032;-81
2021/11/04 05:32:10;;;;;;;0.30;0.20;;;5.30;99.90;;;;;;5087175;28;20024;-81
2021/11/04 05:34:39;;;;;;;0.70;0.20;;;5.30;99.90;;;;;;5079118;28;20016;-83
2021/11/04 05:37:07;;;;;;;0.57;0.20;;;5.20;99.90;;;;;;5076862;28;20024;-82
2021/11/04 05:39:35;;;;;;;3.17;0.40;;;5.30;99.90;;;;;;5084921;28;20046;-82
2021/11/04 05:42:00;;;;;;;0.40;0.30;;;5.30;99.90;;;;;;5078228;28;20046;-83
2021/11/04 05:44:26;;;;;;;0.80;0.30;;;5.20;99.90;;;;;;5072705;28;20021;-82
2021/11/04 05:46:52;;;;;;;0.60;0.20;;;5.20;99.90;;;;;;5074056;28;20032;-83
2021/11/04 05:49:18;;;;;;;2.00;0.47;;;5.20;99.90;;;;;;5074869;28;20033;-83
2021/11/04 05:51:45;;;;;;;0.67;0.20;;;5.20;99.90;;;;;;5068195;28;20068;-82
2021/11/04 05:54:11;;;;;;;0.50;0.20;;;5.20;99.90;;;;;;5054889;28;20529;-83
2021/11/04 05:56:36;;;;;;;0.70;0.30;;;5.20;99.90;;;;;;5056752;28;20031;-82
2021/11/04 05:59:02;;;;;;;1.03;0.37;;;5.20;99.90;;;;;;5073716;28;20036;-82
2021/11/04 06:01:28;;;;;;;0.60;0.30;;;5.20;99.90;;;;;;5073494;28;20021;-82
2021/11/04 06:03:54;;;;;;;1.00;0.33;;;5.30;99.90;;;;;;5074521;28;20032;-83
2021/11/04 06:06:20;;;;;;;1.03;0.30;;;5.30;99.90;;;;;;5057700;28;20033;-82
2021/11/04 06:08:46;;;;;;;1.23;0.40;;;5.30;99.90;;;;;;5073525;28;20028;-82
2021/11/04 06:11:11;;;;;;;0.77;0.33;;;5.30;99.90;;;;;;5072223;28;20048;-84
2021/11/04 06:13:37;;;;;;;0.67;0.30;;;5.20;99.90;;;;;;5074221;28;20656;-83
2021/11/04 06:16:03;;;;;;;0.83;0.30;;;5.30;99.90;;;;;;5071088;28;20021;-83
2021/11/04 06:18:28;;;;;;;1.43;0.50;;;5.30;99.90;;;;;;5071404;28;20139;-83
2021/11/04 06:20:54;;;;;;;0.90;0.40;;;5.30;99.90;;;;;;5070271;28;20039;-83
2021/11/04 06:23:20;;;;;;;0.80;0.30;;;5.20;99.90;;;;;;5054541;28;20400;-82
2021/11/04 06:25:46;;;;;;;1.37;0.40;;;5.30;99.90;;;;;;5047159;28;20032;-82
2021/11/04 06:28:12;;;;;;;1.10;0.50;;;5.20;99.90;;;;;;5051544;28;20028;-81
2021/11/04 06:30:37;;;;;;;1.10;0.50;;;5.20;99.90;;;;;;5050430;28;20115;-81
2021/11/04 06:33:03;;;;;;;1.43;0.70;;;5.10;99.90;;;;;;5067405;28;20025;-80
2021/11/04 06:35:29;;;;;;;1.33;0.60;;;5.10;99.90;;;;;;5069835;28;20032;-80
2021/11/04 06:37:54;;;;;;;0.90;0.47;;;5.10;99.90;;;;;;5050710;28;20074;-80
2021/11/04 06:40:26;;;;;;;1.50;0.60;;;5.10;99.90;;;;;;5066445;28;20091;-81
2021/11/04 06:42:52;;;;;;;1.40;0.50;;;5.20;99.90;;;;;;5052372;28;20032;-80
2021/11/04 06:45:18;;;;;;;1.10;0.40;;;5.20;99.90;;;;;;5068440;28;20388;-80
2021/11/04 06:47:50;;;;;;;1.27;0.50;;;5.10;99.90;;;;;;5053976;28;20062;-81
2021/11/04 06:50:23;;;;;;;1.60;0.60;;;5.10;99.90;;;;;;5058975;28;20035;-82
2021/11/04 06:53:05;;;;;;;2.20;0.70;;;5.20;99.90;;;;;;5057633;28;20034;-81
2021/11/04 06:55:32;;;;;;;;;;;5.20;99.90;;;;;;5071326;28;20052;-79
2021/11/04 06:58:01;;;;;;;2.33;0.70;;;5.20;99.90;;;;;;5060970;28;19972;-79
2021/11/04 07:00:30;;;;;;;1.43;0.50;;;5.30;99.90;;;;;;5069128;28;20093;-80
2021/11/04 07:03:09;;;;;;;1.13;0.57;;;5.20;99.90;;;;;;5066791;28;20485;-79
2021/11/04 07:05:35;;;;;;;1.27;0.57;;;5.30;99.90;;;;;;5071535;28;20547;-82
2021/11/04 07:08:03;;;;;;;1.30;0.57;;;5.30;99.90;;;;;;5061257;28;20016;-80
2021/11/04 07:10:30;;;;;;;0.90;0.40;;;5.30;99.90;;;;;;5070013;28;20120;-80
2021/11/04 07:12:55;;;;;;;1.10;0.50;;;5.40;99.90;;;;;;5070322;28;20024;-81
2021/11/04 07:15:22;;;;;;;2.70;0.50;;;5.40;99.90;;;;;;5068472;28;20062;-81
2021/11/04 07:17:48;;;;;;;1.20;0.50;;;5.40;99.90;;;;;;5056142;28;20028;-79
2021/11/04 07:20:16;;;;;;;1.33;0.43;;;5.40;99.90;;;;;;5054047;28;20086;-80
2021/11/04 07:22:57;;;;;;;1.47;0.40;;;5.40;99.90;;;;;;5052035;28;20032;-82
2021/11/04 07:25:24;;;;;;;0.70;0.40;;;5.40;99.90;;;;;;5055059;28;20052;-80
2021/11/04 07:28:07;;;;;;;0.73;0.30;;;5.40;99.90;;;;;;5071303;28;20070;-79
2021/11/04 07:30:33;;;;;;;0.73;0.40;;;5.50;99.90;;;;;;5054742;28;20024;-81
2021/11/04 07:33:09;;;;;;;1.60;0.30;;;5.50;99.90;;;;;;5072043;28;20101;-80
2021/11/04 07:35:39;;;;;;;1.63;0.60;;;5.50;99.90;;;;;;5056232;28;20033;-80
2021/11/04 07:38:07;;;;;;;1.10;0.33;;;5.50;99.90;;;;;;5069204;28;20059;-82
2021/11/04 07:40:33;;;;;;;1.40;0.80;;;5.50;99.90;;;;;;5054300;28;20474;-81
2021/11/04 07:43:00;;;;;;;1.10;0.30;;;5.50;99.90;;;;;;5050505;28;20052;-82
2021/11/04 07:45:29;;;;;;;1.13;0.40;;;5.50;99.90;;;;;;5071682;28;20508;-81
2021/11/04 07:47:55;;;;;;;0.90;0.40;;;5.50;99.90;;;;;;5070424;28;20032;-79
2021/11/04 07:50:25;;;;;;;1.77;0.60;;;5.50;99.90;;;;;;5067130;28;20037;-81
2021/11/04 07:52:51;;;;;;;1.53;0.40;;;5.50;99.90;;;;;;5055649;28;20507;-80
2021/11/04 07:55:18;;;;;;;0.70;0.30;;;5.50;99.90;;;;;;5072246;28;20421;-81
2021/11/04 07:57:44;;;;;;;1.77;0.40;;;5.50;99.90;;;;;;5073052;28;20089;-80
2021/11/04 08:00:13;;;;;;;1.27;0.40;;;5.60;99.90;;;;;;5056967;28;20583;-82
2021/11/04 08:02:42;;;;;;;0.53;0.30;;;5.60;99.90;;;;;;5070051;28;20021;-80
2021/11/04 08:05:13;;;;;;;2.20;0.60;;;5.60;99.90;;;;;;5065162;28;20500;-80
2021/11/04 08:07:40;;;;;;;1.45;0.50;;;5.60;99.90;;;;;;5069114;28;20025;-78
2021/11/04 08:10:11;;;;;;;1.57;0.50;;;5.60;99.90;;;;;;5066650;28;20527;-80
2021/11/04 08:12:38;;;;;;;3.78;0.55;;;5.60;99.90;;;;;;5068088;28;20028;-78
2021/11/04 08:15:06;;;;;;;1.27;0.30;;;5.60;99.90;;;;;;5069805;28;20037;-79
2021/11/04 08:17:31;;;;;;;1.00;0.40;;;5.60;99.90;;;;;;5051505;28;20495;-80
2021/11/04 08:19:57;;;;;;;2.27;0.50;;;5.60;99.90;;;;;;5053936;28;20029;-78
2021/11/04 08:22:23;;;;;;;1.23;0.40;;;5.50;99.90;;;;;;5072366;28;20545;-80
2021/11/04 08:24:49;;;;;;;1.17;0.33;;;5.50;99.90;;;;;;5073752;28;20032;-80
2021/11/04 08:27:16;;;;;;;0.90;0.40;;;5.50;99.90;;;;;;5073141;28;20111;-79
2021/11/04 08:29:41;;;;;;;1.47;0.47;;;5.50;99.90;;;;;;5071670;28;20050;-79
2021/11/04 08:32:11;;;;;;;0.80;0.40;;;5.40;99.90;;;;;;5054788;28;20028;-80
2021/11/04 08:34:42;;;;;;;1.33;0.47;;;5.30;99.90;;;;;;5049732;28;20020;-79
2021/11/04 08:37:08;;;;;;;1.17;0.43;;;5.40;99.90;;;;;;5048026;28;20039;-80
2021/11/04 08:39:34;;;;;;;1.47;0.60;;;5.40;99.90;;;;;;5069867;28;20040;-78
2021/11/04 08:42:00;;;;;;;1.47;0.50;;;5.40;99.90;;;;;;5060143;28;20028;-79
2021/11/04 08:44:25;;;;;;;1.77;0.70;;;5.40;99.90;;;;;;5054034;28;20036;-79
2021/11/04 08:46:52;;;;;;;1.97;0.77;;;5.40;99.90;;;;;;5065989;28;20036;-80
2021/11/04 08:49:17;;;;;;;2.23;0.67;;;5.40;99.90;;;;;;5067928;28;20131;-79
2021/11/04 08:51:43;;;;;;;1.20;0.60;;;5.40;99.90;;;;;;5059376;28;20117;-79
2021/11/04 08:54:09;;;;;;;1.30;0.60;;;5.40;99.90;;;;;;5062263;28;20382;-79
2021/11/04 08:56:36;;;;;;;1.77;0.63;;;5.40;99.90;;;;;;5061561;28;20119;-79
2021/11/04 08:59:05;;;;;;;2.80;0.77;;;5.40;99.90;;;;;;5072677;28;20029;-81
2021/11/04 09:01:33;;;;;;;1.00;0.47;;;5.50;99.90;;;;;;5073612;28;20038;-79
2021/11/04 09:03:59;;;;;;;2.07;0.70;;;5.50;99.90;;;;;;5068855;28;20108;-80
2021/11/04 09:06:25;;;;;;;1.33;0.50;;;5.60;99.90;;;;;;5067204;28;20107;-81
2021/11/04 09:08:51;;;;;;;1.13;0.50;;;5.60;99.90;;;;;;5073779;28;20125;-80
2021/11/04 09:11:16;;;;;;;3.17;1.77;;;5.60;99.90;;;;;;5063198;28;20431;-80
2021/11/04 09:13:42;;;;;;;1.47;0.50;;;5.60;99.90;;;;;;5074505;28;20071;-81
2021/11/04 09:16:08;;;;;;;1.53;0.77;;;5.70;99.90;;;;;;5059729;28;20025;-81
2021/11/04 09:18:34;;;;;;;0.87;0.50;;;5.70;99.90;;;;;;5074897;28;20028;-80
2021/11/04 09:20:59;;;;;;;1.87;0.73;;;5.80;99.90;;;;;;5074798;28;20024;-81
2021/11/04 09:23:25;;;;;;;1.40;0.50;;;5.80;99.90;;;;;;5076235;28;20485;-80
2021/11/04 09:25:51;;;;;;;0.87;0.40;;;5.80;99.90;;;;;;5052233;28;20035;-79
2021/11/04 09:28:17;;;;;;;2.00;0.50;;;5.80;99.90;;;;;;5051853;28;20027;-80
2021/11/04 09:30:42;;;;;;;0.97;0.50;;;5.90;99.90;;;;;;5047101;28;20037;-79
2021/11/04 09:33:09;;;;;;;1.67;0.70;;;6.00;99.90;;;;;;5069838;28;20076;-81
2021/11/04 09:35:36;;;;;;;1.20;0.40;;;6.00;99.90;;;;;;5074864;28;20112;-80
2021/11/04 09:38:04;;;;;;;0.70;0.30;;;6.10;99.90;;;;;;5075766;28;20047;-81
2021/11/04 09:40:29;;;;;;;1.03;0.50;;;6.10;99.90;;;;;;5056613;28;20036;-78
2021/11/04 09:42:55;;;;;;;1.53;0.50;;;6.10;99.90;;;;;;5069291;28;20025;-80
2021/11/04 09:45:22;;;;;;;0.60;0.23;;;6.10;99.90;;;;;;5062506;28;20610;-81
2021/11/04 09:47:48;;;;;;;0.80;0.40;;;6.20;99.90;;;;;;5072432;28;20021;-81
2021/11/04 09:50:16;;;;;;;0.70;0.30;;;6.10;99.90;;;;;;5051363;28;20031;-80
2021/11/04 09:52:43;;;;;;;1.67;0.50;;;6.20;99.90;;;;;;5060955;28;20227;-79
2021/11/04 09:55:17;;;;;;;1.03;0.43;;;6.20;99.90;;;;;;5051632;28;20056;-81
2021/11/04 09:57:43;;;;;;;0.97;0.30;;;6.20;99.90;;;;;;5073200;28;20067;-81
2021/11/04 10:00:10;;;;;;;1.63;0.50;;;6.20;99.90;;;;;;5072468;28;20028;-81
2021/11/04 10:02:36;;;;;;;0.60;0.30;;;6.20;99.90;;;;;;5055287;28;20024;-80
2021/11/04 10:05:07;;;;;;;1.60;0.30;;;6.30;99.90;;;;;;5051662;28;20409;-81
2021/11/04 10:07:45;;;;;;;1.17;0.40;;;6.30;99.90;;;;;;5066773;28;20025;-81
2021/11/04 10:10:13;;;;;;;0.40;0.20;;;6.30;99.90;;;;;;5069630;28;20056;-81
2021/11/04 10:13:06;;;;;;;1.70;0.80;;;6.20;99.90;;;;;;5062458;28;20048;-81
2021/11/04 10:15:34;;;;;;;1.03;0.40;;;6.20;99.90;;;;;;5073313;28;20068;-81
2021/11/04 10:18:11;;;;;;;0.80;0.37;;;6.20;99.90;;;;;;5072636;28;20051;-80
2021/11/04 10:20:37;;;;;;;0.80;0.27;;;6.30;99.90;;;;;;5072975;28;20086;-79
2021/11/04 10:23:12;;;;;;;0.57;0.20;;;6.30;99.90;;;;;;5074295;28;20024;-77
2021/11/04 10:25:38;;;;;;;1.30;0.20;;;6.30;99.90;;;;;;5074513;28;20020;-80
2021/11/04 10:28:24;;;;;;;0.50;0.20;;;6.40;99.90;;;;;;5071205;28;20107;-79
2021/11/04 10:30:50;;;;;;;0.37;0.10;;;6.40;99.90;;;;;;5069163;28;20534;-79
2021/11/04 10:33:31;;;;;;;1.40;0.40;;;6.50;99.90;;;;;;5071327;28;20516;-77
2021/11/04 10:36:17;;;;;;;0.90;0.20;;;6.50;99.90;;;;;;5065859;28;20511;-79
2021/11/04 10:38:52;;;;;;;1.60;0.20;;;6.50;99.90;;;;;;5071291;28;20074;-78
2021/11/04 10:41:30;;;;;;;2.20;0.27;;;6.40;99.90;;;;;;5065860;28;20037;-79
2021/11/04 10:44:21;;;;;;;0.73;0.20;;;6.40;99.90;;;;;;5073299;28;20495;-80
2021/11/04 10:46:51;;;;;;;0.40;0.20;;;6.40;99.90;;;;;;5072089;28;20048;-78
2021/11/04 10:49:19;;;;;;;0.70;0.20;;;6.40;99.90;;;;;;5056801;28;20028;-80
2021/11/04 10:52:14;;;;;;;0.77;0.27;;;6.30;99.90;;;;;;5056082;28;20039;-78
2021/11/04 10:54:50;;;;;;;0.33;0.10;;;6.30;99.90;;;;;;5051569;28;20056;-78
2021/11/04 10:57:39;;;;;;;0.87;0.40;;;6.20;99.90;;;;;;5075311;28;20040;-79
2021/11/04 11:00:21;;;;;;;0.53;0.20;;;6.30;99.90;;;;;;5061423;28;20050;-79
2021/11/04 11:03:06;;;;;;;0.63;0.20;;;6.30;99.90;;;;;;5063471;28;20035;-77
2021/11/04 11:05:33;;;;;;;1.60;0.30;;;6.30;99.90;;;;;;5059637;28;20025;-80
2021/11/04 11:08:01;;;;;;;0.57;0.20;;;6.30;99.90;;;;;;5069836;28;20055;-79
2021/11/04 11:10:27;;;;;;;0.50;0.30;;;6.40;99.90;;;;;;5070522;28;20048;-81
2021/11/04 11:12:52;;;;;;;0.50;0.30;;;6.30;99.90;;;;;;5054951;28;20037;-80
2021/11/04 11:15:18;;;;;;;0.73;0.20;;;6.30;99.90;;;;;;5056584;28;20764;-78
2021/11/04 11:17:49;;;;;;;0.70;0.17;;;6.40;99.90;;;;;;5069737;28;20039;-79
2021/11/04 11:20:16;;;;;;;0.57;0.20;;;6.30;99.90;;;;;;5059237;28;20072;-78
2021/11/04 11:22:43;;;;;;;1.07;0.10;;;6.30;99.90;;;;;;5064436;28;20397;-79
2021/11/04 11:25:09;;;;;;;0.90;0.30;;;6.30;99.90;;;;;;5069933;28;20027;-81
2021/11/04 11:27:37;;;;;;;1.43;0.47;;;6.30;99.90;;;;;;5063159;28;20024;-81
2021/11/04 11:30:13;;;;;;;0.70;0.30;;;6.30;99.90;;;;;;5069454;28;20067;-79
2021/11/04 11:32:40;;;;;;;1.00;0.40;;;6.30;99.90;;;;;;5063625;28;20401;-79
2021/11/04 11:35:16;;;;;;;1.57;0.50;;;6.30;99.90;;;;;;5070757;28;20111;-81
2021/11/04 11:37:54;;;;;;;1.10;0.43;;;6.30;99.90;;;;;;5069434;28;20403;-80
2021/11/04 11:40:21;;;;;;;0.87;0.30;;;6.20;99.90;;;;;;5060988;28;20028;-80
2021/11/04 11:43:00;;;;;;;1.70;0.50;;;6.30;99.90;;;;;;5070380;28;20048;-79
2021/11/04 11:45:31;;;;;;;1.23;0.43;;;6.30;99.90;;;;;;5061528;28;20024;-80
2021/11/04 11:48:20;;;;;;;2.17;0.80;;;6.30;99.90;;;;;;5060199;28;20116;-79
2021/11/04 11:50:47;;;;;;;1.60;0.70;;;6.30;99.90;;;;;;5069714;28;20040;-81
2021/11/04 11:53:26;;;;;;;1.50;0.67;;;6.30;99.90;;;;;;5060916;28;20036;-80
2021/11/04 11:55:57;;;;;;;2.00;0.83;;;6.30;99.90;;;;;;5062824;28;20539;-80
2021/11/04 11:58:30;;;;;;;1.73;0.70;;;6.30;99.90;;;;;;5065255;28;20169;-82
2021/11/04 12:01:03;;;;;;;2.57;1.10;;;6.40;99.90;;;;;;5074556;28;20028;-80
2021/11/04 12:03:41;;;;;;;2.83;0.93;;;6.40;99.90;;;;;;5069080;28;20043;-82
2021/11/04 12:06:16;;;;;;;2.90;1.00;;;6.30;99.90;;;;;;5057032;28;20417;-80
2021/11/04 12:08:52;;;;;;;3.20;1.37;;;6.30;99.90;;;;;;5051049;28;20107;-82
2021/11/04 12:11:36;;;;;;;4.27;1.70;;;6.30;99.90;;;;;;5059092;28;20036;-80
2021/11/04 12:14:24;;;;;;;3.63;1.40;;;6.40;99.90;;;;;;5077603;28;20040;-81
2021/11/04 12:17:09;;;;;;;3.47;1.73;;;6.40;99.90;;;;;;5071830;28;20032;-80
2021/11/04 12:19:48;;;;;;;3.60;1.30;;;6.40;99.90;;;;;;5076366;28;21273;-80
2021/11/04 12:22:31;;;;;;;3.50;1.43;;;6.40;99.90;;;;;;5053823;28;20047;-80
2021/11/04 12:25:03;;;;;;;4.00;1.50;;;6.50;99.90;;;;;;5069590;28;20451;-80
2021/11/04 12:27:30;;;;;;;3.65;1.42;;;6.50;99.90;;;;;;5078172;28;20500;-81
2021/11/04 12:29:56;;;;;;;4.00;1.87;;;6.60;99.90;;;;;;5072384;28;20459;-80
2021/11/04 12:32:25;;;;;;;3.50;1.43;;;6.60;99.90;;;;;;5071749;28;20059;-81
2021/11/04 12:35:04;;;;;;;3.33;1.50;;;6.70;99.90;;;;;;5052523;28;20024;-81
2021/11/04 12:37:33;;;;;;;3.80;1.57;;;6.80;99.90;;;;;;5072974;28;20028;-80
2021/11/04 12:40:04;;;;;;;4.60;2.07;;;6.90;99.90;;;;;;5061097;28;20536;-83
2021/11/04 12:42:29;;;;;;;3.80;1.60;;;6.90;99.90;;;;;;5058354;28;20032;-77
2021/11/04 12:44:55;;;;;;;4.13;1.70;;;7.00;99.90;;;;;;5068680;28;20017;-80
2021/11/04 12:47:22;;;;;;;4.23;2.07;;;7.00;99.90;;;;;;5063330;28;20020;-82
2021/11/04 12:49:49;;;;;;;5.60;2.47;;;7.00;99.90;;;;;;5070649;28;20036;-80
2021/11/04 12:52:15;;;;;;;5.67;2.20;;;6.90;99.90;;;;;;5063854;28;20056;-79
2021/11/04 12:54:53;;;;;;;3.50;1.30;;;7.00;99.90;;;;;;5057907;28;20033;-81
2021/11/04 12:57:27;;;;;;;4.53;1.83;;;7.10;99.90;;;;;;5069511;28;20032;-81
2021/11/04 13:00:01;;;;;;;5.23;2.00;;;7.10;99.90;;;;;;5053295;28;20020;-80
2021/11/04 13:02:34;;;;;;;4.37;2.40;;;7.10;99.90;;;;;;5061807;28;20029;-80
2021/11/04 13:05:11;;;;;;;4.63;1.87;;;7.10;99.90;;;;;;5066650;28;20110;-81